createdAt,value
2018-03-06T00:00:42.197Z,1.90
2018-03-06T00:03:11.044Z,1.90
2018-03-06T00:05:38.914Z,1.90
2018-03-06T00:08:06.799Z,1.90
2018-03-06T00:10:34.671Z,1.90
2018-03-06T00:13:02.742Z,1.90
2018-03-06T00:15:31.446Z,2.00
2018-03-06T00:18:00.097Z,1.90
2018-03-06T00:20:27.971Z,1.90
2018-03-06T00:22:55.781Z,1.80
2018-03-06T00:25:23.549Z,1.90
2018-03-06T00:27:51.426Z,1.80
2018-03-06T00:30:19.354Z,1.70
2018-03-06T00:32:47.300Z,1.70
2018-03-06T00:35:15.966Z,1.50
2018-03-06T00:37:43.824Z,1.50
2018-03-06T00:40:11.725Z,1.60
2018-03-06T00:42:40.425Z,1.60
2018-03-06T00:45:08.357Z,1.60
2018-03-06T00:47:36.346Z,1.60
2018-03-06T00:50:05.148Z,1.60
2018-03-06T00:52:33.034Z,1.60
2018-03-06T00:55:00.882Z,1.60
2018-03-06T00:57:29.667Z,1.60
2018-03-06T00:59:58.456Z,1.60
2018-03-06T01:02:26.410Z,1.60
2018-03-06T01:04:55.108Z,1.60
2018-03-06T01:07:23.694Z,1.60
2018-03-06T01:09:52.273Z,1.60
2018-03-06T01:12:20.938Z,1.60
2018-03-06T01:14:48.731Z,1.50
2018-03-06T01:17:16.575Z,1.50
2018-03-06T01:19:45.124Z,1.50
2018-03-06T01:22:13.023Z,1.50
2018-03-06T01:24:40.890Z,1.50
2018-03-06T01:27:09.603Z,1.50
2018-03-06T01:29:38.266Z,1.50
2018-03-06T01:32:06.829Z,1.50
2018-03-06T01:34:34.812Z,1.50
2018-03-06T01:37:02.996Z,1.50
2018-03-06T01:39:30.957Z,1.50
2018-03-06T01:41:59.552Z,1.30
2018-03-06T01:44:28.142Z,1.40
2018-03-06T01:46:56.197Z,1.40
2018-03-06T01:49:24.148Z,1.50
2018-03-06T01:51:59.742Z,1.50
2018-03-06T01:54:27.599Z,1.50
2018-03-06T01:56:55.444Z,1.50
2018-03-06T01:59:23.271Z,1.40
2018-03-06T02:01:51.075Z,1.30
2018-03-06T02:04:19.680Z,1.10
2018-03-06T02:06:48.233Z,1.10
2018-03-06T02:09:16.104Z,1.20
2018-03-06T02:11:44.059Z,1.10
2018-03-06T02:14:27.044Z,1.10
2018-03-06T02:16:54.939Z,1.00
2018-03-06T02:19:22.795Z,1.10
2018-03-06T02:21:50.807Z,1.20
2018-03-06T02:24:19.485Z,1.20
2018-03-06T02:26:48.160Z,1.20
2018-03-06T02:29:16.019Z,1.20
2018-03-06T02:31:44.004Z,1.20
2018-03-06T02:34:12.719Z,1.30
2018-03-06T02:36:40.494Z,1.30
2018-03-06T02:39:08.417Z,1.30
2018-03-06T02:41:37.109Z,1.30
2018-03-06T02:44:05.781Z,1.30
2018-03-06T02:46:33.748Z,1.30
2018-03-06T02:49:01.828Z,1.40
2018-03-06T02:51:30.440Z,1.50
2018-03-06T02:53:58.473Z,1.50
2018-03-06T02:56:26.271Z,1.60
2018-03-06T02:59:05.691Z,1.60
2018-03-06T03:01:34.449Z,1.70
2018-03-06T03:04:02.204Z,1.70
2018-03-06T03:06:30.198Z,1.60
2018-03-06T03:08:58.262Z,1.60
2018-03-06T03:11:26.038Z,1.60
2018-03-06T03:13:53.993Z,1.60
2018-03-06T03:16:22.475Z,1.60
2018-03-06T03:18:51.263Z,1.60
2018-03-06T03:21:19.253Z,1.60
2018-03-06T03:23:48.630Z,1.60
2018-03-06T03:26:16.520Z,1.60
2018-03-06T03:28:45.117Z,1.70
2018-03-06T03:31:13.896Z,1.70
2018-03-06T03:33:42.681Z,1.70
2018-03-06T03:36:11.338Z,1.70
2018-03-06T03:38:39.156Z,1.70
2018-03-06T03:41:07.078Z,1.70
2018-03-06T03:43:34.917Z,1.70
2018-03-06T03:46:02.723Z,1.70
2018-03-06T03:48:31.510Z,1.70
2018-03-06T03:51:00.036Z,1.80
2018-03-06T03:53:27.931Z,1.80
2018-03-06T03:55:56.284Z,1.70
2018-03-06T03:58:24.177Z,1.70
2018-03-06T04:00:51.980Z,1.70
2018-03-06T04:03:21.012Z,1.80
2018-03-06T04:05:49.034Z,1.80
2018-03-06T04:08:16.840Z,1.80
2018-03-06T04:10:44.628Z,1.90
2018-03-06T04:13:12.440Z,1.90
2018-03-06T04:15:40.999Z,1.90
2018-03-06T04:18:08.783Z,1.90
2018-03-06T04:20:42.694Z,1.90
2018-03-06T04:23:12.326Z,1.90
2018-03-06T04:25:42.276Z,1.90
2018-03-06T04:28:12.254Z,1.90
2018-03-06T04:30:40.381Z,1.90
2018-03-06T04:33:08.268Z,1.90
2018-03-06T04:35:36.233Z,2.00
2018-03-06T04:38:04.919Z,1.90
2018-03-06T04:40:32.881Z,1.90
2018-03-06T04:43:00.776Z,1.90
2018-03-06T04:45:28.773Z,1.90
2018-03-06T04:47:56.612Z,1.90
2018-03-06T04:50:25.364Z,1.90
2018-03-06T04:52:53.254Z,1.90
2018-03-06T04:55:21.910Z,1.90
2018-03-06T04:57:49.800Z,1.90
2018-03-06T05:00:18.478Z,1.90
2018-03-06T05:02:47.149Z,1.90
2018-03-06T05:05:15.876Z,1.90
2018-03-06T05:07:59.573Z,1.90
2018-03-06T05:10:27.687Z,1.80
2018-03-06T05:12:56.241Z,1.90
2018-03-06T05:15:24.105Z,1.90
2018-03-06T05:17:51.993Z,2.00
2018-03-06T05:20:20.785Z,1.90
2018-03-06T05:22:49.758Z,1.90
2018-03-06T05:25:18.429Z,1.90
2018-03-06T05:27:46.304Z,1.90
2018-03-06T05:30:14.091Z,1.90
2018-03-06T05:32:41.966Z,2.00
2018-03-06T05:35:09.725Z,2.10
2018-03-06T05:37:38.383Z,2.10
2018-03-06T05:40:06.343Z,2.10
2018-03-06T05:42:34.166Z,2.20
2018-03-06T05:45:02.179Z,2.10
2018-03-06T05:47:30.032Z,2.10
2018-03-06T05:49:58.039Z,2.10
2018-03-06T05:52:26.577Z,2.00
2018-03-06T05:54:54.583Z,2.00
2018-03-06T05:57:23.153Z,2.00
2018-03-06T05:59:51.322Z,1.90
2018-03-06T06:02:19.188Z,1.90
2018-03-06T06:04:47.067Z,1.90
2018-03-06T06:07:14.888Z,1.90
2018-03-06T06:09:42.650Z,1.90
2018-03-06T06:12:10.580Z,1.90
2018-03-06T06:14:38.430Z,1.90
2018-03-06T06:17:06.328Z,1.90
2018-03-06T06:19:35.075Z,2.00
2018-03-06T06:22:03.038Z,2.00
2018-03-06T06:24:31.003Z,2.00
2018-03-06T06:26:58.755Z,2.10
2018-03-06T06:29:26.560Z,2.10
2018-03-06T06:31:54.527Z,2.20
2018-03-06T06:34:22.386Z,2.20
2018-03-06T06:36:50.255Z,2.30
2018-03-06T06:39:18.020Z,2.30
2018-03-06T06:41:45.977Z,2.30
2018-03-06T06:44:13.704Z,2.30
2018-03-06T06:46:41.634Z,2.40
2018-03-06T06:49:09.585Z,2.40
2018-03-06T06:51:37.570Z,2.40
2018-03-06T06:54:05.367Z,2.50
2018-03-06T06:56:34.092Z,2.70
2018-03-06T06:59:01.975Z,2.60
2018-03-06T07:01:29.751Z,2.70
2018-03-06T07:03:57.588Z,2.70
2018-03-06T07:06:25.370Z,2.70
2018-03-06T07:08:53.319Z,2.70
2018-03-06T07:11:21.426Z,2.70
2018-03-06T07:13:49.372Z,2.70
2018-03-06T07:16:17.163Z,2.70
2018-03-06T07:18:45.073Z,2.70
2018-03-06T07:21:13.184Z,2.80
2018-03-06T07:23:42.253Z,2.80
2018-03-06T07:26:10.244Z,2.80
2018-03-06T07:28:38.507Z,2.80
2018-03-06T07:31:06.373Z,2.80
2018-03-06T07:33:34.274Z,2.80
2018-03-06T07:36:02.822Z,2.80
2018-03-06T07:38:31.313Z,2.80
2018-03-06T07:40:59.999Z,2.80
2018-03-06T07:43:28.056Z,2.80
2018-03-06T07:45:55.948Z,2.80
2018-03-06T07:48:23.790Z,2.80
2018-03-06T07:50:51.574Z,2.80
2018-03-06T07:53:19.651Z,2.80
2018-03-06T07:55:47.647Z,2.90
2018-03-06T07:58:16.301Z,3.00
2018-03-06T08:00:44.143Z,3.00
2018-03-06T08:03:12.029Z,3.00
2018-03-06T08:05:39.877Z,3.10
2018-03-06T08:08:07.759Z,3.10
2018-03-06T08:10:35.635Z,3.10
2018-03-06T08:13:03.503Z,3.20
2018-03-06T08:15:31.550Z,3.30
2018-03-06T08:17:59.427Z,3.40
2018-03-06T08:20:27.285Z,3.40
2018-03-06T08:22:55.169Z,3.50
2018-03-06T08:25:23.047Z,3.40
2018-03-06T08:27:50.854Z,3.40
2018-03-06T08:30:19.791Z,3.50
2018-03-06T08:32:47.748Z,3.50
2018-03-06T08:35:15.655Z,3.50
2018-03-06T08:37:44.266Z,3.60
2018-03-06T08:40:12.465Z,3.50
2018-03-06T08:42:40.275Z,3.70
2018-03-06T08:45:08.810Z,3.80
2018-03-06T08:47:36.692Z,3.70
2018-03-06T08:50:04.558Z,3.80
2018-03-06T08:52:32.521Z,3.90
2018-03-06T08:55:00.398Z,4.10
2018-03-06T08:57:28.719Z,4.20
2018-03-06T08:59:57.391Z,4.60
2018-03-06T09:02:25.309Z,4.50
2018-03-06T09:04:53.192Z,4.70
2018-03-06T09:07:21.256Z,5.00
2018-03-06T09:09:49.166Z,5.10
2018-03-06T09:12:17.804Z,5.20
2018-03-06T09:14:45.699Z,5.20
2018-03-06T09:17:13.495Z,5.40
2018-03-06T09:19:41.309Z,5.40
2018-03-06T09:22:09.375Z,4.90
2018-03-06T09:24:37.143Z,4.90
2018-03-06T09:27:04.997Z,5.10
2018-03-06T09:29:33.076Z,5.20
2018-03-06T09:32:01.153Z,5.10
2018-03-06T09:34:29.161Z,5.30
2018-03-06T09:36:57.709Z,5.50
2018-03-06T09:39:25.705Z,5.50
2018-03-06T09:42:01.904Z,5.40
2018-03-06T09:44:31.023Z,5.30
2018-03-06T09:46:58.900Z,5.30
2018-03-06T09:49:27.626Z,5.50
2018-03-06T09:51:56.980Z,5.80
2018-03-06T09:54:24.879Z,5.80
2018-03-06T09:56:52.846Z,6.00
2018-03-06T09:59:20.681Z,6.10
2018-03-06T10:01:48.672Z,6.30
2018-03-06T10:04:17.059Z,6.40
2018-03-06T10:06:45.036Z,6.30
2018-03-06T10:09:14.626Z,6.40
2018-03-06T10:11:42.628Z,6.40
2018-03-06T10:14:10.627Z,6.60
2018-03-06T10:16:39.330Z,6.60
2018-03-06T10:19:07.191Z,6.90
2018-03-06T10:21:35.284Z,6.60
2018-03-06T10:24:03.149Z,6.90
2018-03-06T10:26:30.952Z,7.10
2018-03-06T10:28:58.768Z,7.20
2018-03-06T10:31:26.812Z,6.70
2018-03-06T10:33:54.716Z,6.60
2018-03-06T10:36:22.686Z,6.40
2018-03-06T10:38:50.637Z,5.70
2018-03-06T10:41:18.645Z,6.10
2018-03-06T10:43:46.675Z,6.40
2018-03-06T10:46:14.768Z,6.60
2018-03-06T10:48:42.631Z,6.70
2018-03-06T10:51:10.786Z,6.40
2018-03-06T10:53:38.538Z,6.40
2018-03-06T10:56:06.453Z,6.10
2018-03-06T10:58:34.425Z,6.20
2018-03-06T11:01:03.162Z,6.20
2018-03-06T11:03:31.216Z,6.50
2018-03-06T11:05:58.979Z,6.80
2018-03-06T11:08:27.370Z,7.10
2018-03-06T11:10:55.301Z,6.80
2018-03-06T11:13:23.949Z,6.70
2018-03-06T11:15:51.909Z,6.70
2018-03-06T11:18:20.491Z,6.80
2018-03-06T11:20:48.427Z,7.10
2018-03-06T11:23:16.252Z,7.20
2018-03-06T11:25:44.237Z,6.90
2018-03-06T11:28:14.079Z,7.20
2018-03-06T11:30:41.895Z,7.10
2018-03-06T11:33:10.046Z,7.30
2018-03-06T11:35:37.963Z,7.40
2018-03-06T11:38:06.806Z,7.20
2018-03-06T11:40:35.510Z,7.20
2018-03-06T11:43:03.293Z,7.40
2018-03-06T11:45:33.702Z,7.80
2018-03-06T11:48:01.757Z,7.80
2018-03-06T11:50:29.579Z,8.10
2018-03-06T11:52:57.617Z,8.00
2018-03-06T11:55:25.538Z,7.90
2018-03-06T11:57:53.626Z,8.20
2018-03-06T12:00:26.018Z,8.80
2018-03-06T12:02:53.965Z,8.70
2018-03-06T12:05:22.261Z,8.90
2018-03-06T12:07:50.633Z,9.20
2018-03-06T12:10:18.801Z,9.20
2018-03-06T12:12:46.777Z,9.40
2018-03-06T12:15:14.787Z,9.50
2018-03-06T12:17:42.613Z,9.10
2018-03-06T12:20:10.782Z,9.00
2018-03-06T12:22:38.657Z,8.90
2018-03-06T12:25:06.534Z,8.90
2018-03-06T12:27:34.474Z,8.80
2018-03-06T12:30:02.528Z,8.40
2018-03-06T12:32:31.459Z,8.20
2018-03-06T12:34:59.617Z,8.10
2018-03-06T12:37:28.173Z,8.40
2018-03-06T12:39:56.078Z,8.50
2018-03-06T12:42:24.030Z,8.60
2018-03-06T12:44:52.015Z,8.30
2018-03-06T12:47:19.885Z,8.20
2018-03-06T12:49:47.800Z,7.90
2018-03-06T12:52:15.738Z,7.90
2018-03-06T12:54:43.893Z,7.80
2018-03-06T12:57:12.161Z,7.70
2018-03-06T12:59:40.123Z,7.50
2018-03-06T13:02:07.987Z,7.20
2018-03-06T13:04:35.764Z,7.30
2018-03-06T13:07:03.837Z,7.20
2018-03-06T13:09:31.624Z,7.40
2018-03-06T13:12:00.318Z,7.30
2018-03-06T13:14:29.369Z,7.40
2018-03-06T13:16:57.455Z,7.40
2018-03-06T13:19:25.361Z,7.50
2018-03-06T13:21:53.298Z,7.30
2018-03-06T13:24:21.484Z,7.20
2018-03-06T13:26:50.143Z,7.50
2018-03-06T13:29:18.014Z,7.50
2018-03-06T13:31:45.912Z,7.40
2018-03-06T13:34:14.530Z,7.50
2018-03-06T13:36:42.432Z,7.40
2018-03-06T13:39:10.275Z,7.60
2018-03-06T13:41:38.271Z,7.60
2018-03-06T13:44:06.230Z,7.60
2018-03-06T13:46:34.586Z,7.60
2018-03-06T13:49:02.496Z,8.00
2018-03-06T13:51:30.703Z,8.20
2018-03-06T13:53:58.838Z,8.40
2018-03-06T13:56:27.834Z,8.50
2018-03-06T13:58:55.789Z,8.50
2018-03-06T14:01:23.868Z,8.60
2018-03-06T14:03:52.559Z,8.30
2018-03-06T14:06:20.411Z,8.30
2018-03-06T14:08:48.264Z,8.70
2018-03-06T14:11:16.298Z,9.00
2018-03-06T14:13:44.406Z,9.00
2018-03-06T14:16:12.475Z,9.10
2018-03-06T14:18:40.652Z,9.10
2018-03-06T14:21:08.560Z,9.00
2018-03-06T14:23:37.218Z,8.70
2018-03-06T14:26:05.190Z,8.70
2018-03-06T14:28:33.857Z,8.70
2018-03-06T14:31:02.944Z,8.80
2018-03-06T14:33:30.994Z,8.80
2018-03-06T14:35:58.837Z,8.80
2018-03-06T14:38:28.115Z,9.20
2018-03-06T14:40:56.055Z,9.10
2018-03-06T14:43:24.027Z,9.30
2018-03-06T14:45:51.887Z,9.50
2018-03-06T14:48:19.856Z,9.60
2018-03-06T14:50:47.603Z,9.70
2018-03-06T14:53:15.375Z,9.80
2018-03-06T14:55:43.477Z,9.90
2018-03-06T14:58:11.269Z,9.90
2018-03-06T15:00:39.832Z,10.10
2018-03-06T15:03:07.633Z,10.10
2018-03-06T15:05:35.665Z,10.10
2018-03-06T15:08:04.145Z,9.90
2018-03-06T15:10:33.447Z,9.70
2018-03-06T15:13:03.076Z,9.90
2018-03-06T15:15:31.710Z,10.10
2018-03-06T15:17:59.714Z,10.00
2018-03-06T15:20:29.205Z,9.90
2018-03-06T15:22:57.122Z,9.90
2018-03-06T15:25:26.086Z,9.70
2018-03-06T15:27:53.932Z,9.60
2018-03-06T15:30:21.914Z,9.40
2018-03-06T15:32:49.860Z,9.50
2018-03-06T15:35:17.822Z,9.50
2018-03-06T15:37:46.341Z,9.60
2018-03-06T15:40:14.295Z,9.50
2018-03-06T15:42:42.191Z,9.50
2018-03-06T15:45:11.064Z,9.60
2018-03-06T15:47:38.909Z,9.50
2018-03-06T15:50:06.767Z,9.60
2018-03-06T15:52:34.623Z,9.60
2018-03-06T15:55:02.448Z,9.50
2018-03-06T15:57:31.307Z,9.40
2018-03-06T16:00:00.097Z,9.30
2018-03-06T16:02:28.476Z,9.30
2018-03-06T16:04:56.449Z,9.00
2018-03-06T16:07:24.698Z,8.90
2018-03-06T16:09:52.681Z,8.80
2018-03-06T16:12:21.553Z,8.80
2018-03-06T16:14:49.754Z,8.70
2018-03-06T16:17:17.625Z,8.70
2018-03-06T16:19:45.570Z,8.50
2018-03-06T16:22:13.538Z,8.50
2018-03-06T16:24:41.640Z,8.30
2018-03-06T16:27:09.751Z,8.30
2018-03-06T16:29:37.679Z,8.20
2018-03-06T16:32:05.648Z,8.20
2018-03-06T16:34:34.308Z,8.00
2018-03-06T16:37:02.290Z,8.00
2018-03-06T16:39:30.496Z,7.90
2018-03-06T16:41:59.217Z,7.80
2018-03-06T16:44:27.336Z,7.80
2018-03-06T16:46:57.559Z,7.70
2018-03-06T16:49:25.713Z,7.80
2018-03-06T16:51:55.004Z,7.70
2018-03-06T16:54:23.033Z,7.70
2018-03-06T16:56:51.449Z,7.70
2018-03-06T16:59:19.291Z,7.70
2018-03-06T17:01:47.099Z,7.70
2018-03-06T17:04:15.272Z,7.60
2018-03-06T17:06:43.164Z,7.60
2018-03-06T17:09:10.998Z,7.60
2018-03-06T17:11:39.338Z,7.60
2018-03-06T17:14:07.227Z,7.50
2018-03-06T17:16:35.094Z,7.40
2018-03-06T17:19:07.074Z,7.40
2018-03-06T17:21:37.233Z,7.40
2018-03-06T17:24:06.880Z,7.30
2018-03-06T17:26:37.725Z,7.30
2018-03-06T17:29:06.681Z,7.30
2018-03-06T17:31:34.808Z,7.20
2018-03-06T17:34:09.667Z,7.20
2018-03-06T17:36:37.774Z,7.10
2018-03-06T17:39:05.968Z,7.10
2018-03-06T17:41:33.829Z,7.10
2018-03-06T17:44:01.878Z,7.10
2018-03-06T17:46:31.159Z,7.00
2018-03-06T17:48:59.986Z,6.80
2018-03-06T17:51:28.398Z,6.80
2018-03-06T17:53:57.041Z,6.80
2018-03-06T17:56:25.026Z,6.90
2018-03-06T17:58:53.204Z,7.10
2018-03-06T18:01:21.367Z,7.10
2018-03-06T18:03:49.186Z,7.00
2018-03-06T18:06:17.960Z,6.90
2018-03-06T18:08:46.198Z,6.90
2018-03-06T18:11:14.289Z,6.90
2018-03-06T18:13:42.151Z,7.00
2018-03-06T18:16:10.617Z,7.00
2018-03-06T18:18:38.945Z,7.00
2018-03-06T18:21:06.985Z,7.00
2018-03-06T18:23:34.757Z,6.90
2018-03-06T18:26:03.103Z,6.90
2018-03-06T18:28:31.175Z,6.80
2018-03-06T18:30:59.533Z,6.70
2018-03-06T18:33:28.139Z,6.70
2018-03-06T18:36:00.141Z,6.70
2018-03-06T18:38:29.615Z,6.60
2018-03-06T18:40:58.332Z,6.60
2018-03-06T18:43:27.593Z,6.70
2018-03-06T18:45:55.699Z,6.70
2018-03-06T18:48:23.632Z,6.60
2018-03-06T18:51:04.312Z,6.50
2018-03-06T18:53:32.179Z,6.50
2018-03-06T18:56:00.073Z,6.50
2018-03-06T18:58:29.025Z,6.40
2018-03-06T19:01:09.521Z,6.40
2018-03-06T19:03:49.433Z,6.40
2018-03-06T19:06:24.387Z,6.40
2018-03-06T19:08:52.539Z,6.40
2018-03-06T19:11:20.561Z,6.40
2018-03-06T19:13:48.792Z,6.40
2018-03-06T19:16:16.975Z,6.40
2018-03-06T19:18:45.225Z,6.50
2018-03-06T19:21:13.229Z,6.50
2018-03-06T19:23:41.239Z,6.40
2018-03-06T19:26:09.357Z,6.40
2018-03-06T19:28:37.193Z,6.40
2018-03-06T19:31:05.142Z,6.40
2018-03-06T19:33:33.358Z,6.40
2018-03-06T19:36:02.275Z,6.40
2018-03-06T19:38:30.577Z,6.40
2018-03-06T19:40:59.900Z,6.40
2018-03-06T19:43:28.414Z,6.40
2018-03-06T19:45:56.682Z,6.40
2018-03-06T19:48:25.577Z,6.30
2018-03-06T19:50:53.881Z,6.30
2018-03-06T19:53:22.228Z,6.20
2018-03-06T19:55:51.424Z,6.10
2018-03-06T19:58:20.344Z,6.00
2018-03-06T20:00:48.593Z,6.00
2018-03-06T20:03:18.328Z,5.90
2018-03-06T20:05:46.123Z,5.90
2018-03-06T20:08:14.888Z,5.90
2018-03-06T20:10:44.157Z,5.80
2018-03-06T20:13:13.724Z,5.80
2018-03-06T20:15:41.934Z,5.70
2018-03-06T20:18:10.211Z,5.80
2018-03-06T20:20:38.779Z,5.80
2018-03-06T20:23:08.071Z,5.80
2018-03-06T20:25:41.745Z,5.80
2018-03-06T20:28:10.930Z,5.70
2018-03-06T20:30:57.330Z,5.60
2018-03-06T20:33:25.797Z,5.60
2018-03-06T20:35:53.861Z,5.60
2018-03-06T20:38:27.415Z,5.60
2018-03-06T20:40:55.316Z,5.60
2018-03-06T20:43:23.591Z,5.60
2018-03-06T20:45:57.309Z,5.50
2018-03-06T20:48:25.189Z,5.40
2018-03-06T20:50:53.163Z,5.40
2018-03-06T20:53:27.178Z,5.40
2018-03-06T20:55:55.808Z,5.40
2018-03-06T20:58:24.929Z,5.30
2018-03-06T21:00:53.123Z,5.30
2018-03-06T21:03:22.822Z,5.40
2018-03-06T21:05:50.685Z,5.30
2018-03-06T21:08:18.760Z,5.40
2018-03-06T21:10:46.716Z,5.40
2018-03-06T21:13:15.011Z,5.40
2018-03-06T21:15:43.264Z,5.30
2018-03-06T21:18:11.249Z,5.30
2018-03-06T21:20:39.225Z,5.30
2018-03-06T21:23:08.511Z,5.30
2018-03-06T21:25:37.207Z,5.30
2018-03-06T21:28:05.177Z,5.40
2018-03-06T21:30:32.969Z,5.30
2018-03-06T21:33:01.817Z,5.30
2018-03-06T21:35:29.882Z,5.20
2018-03-06T21:37:58.361Z,5.20
2018-03-06T21:40:26.443Z,5.20
2018-03-06T21:42:54.188Z,5.20
2018-03-06T21:45:22.188Z,5.20
2018-03-06T21:47:50.955Z,5.30
2018-03-06T21:50:18.731Z,5.30
2018-03-06T21:52:46.586Z,5.30
2018-03-06T21:55:14.654Z,5.30
2018-03-06T21:57:42.949Z,5.30
2018-03-06T22:00:11.194Z,5.20
2018-03-06T22:02:39.490Z,5.20
2018-03-06T22:05:07.599Z,5.10
2018-03-06T22:07:36.174Z,5.10
2018-03-06T22:10:04.022Z,5.10
2018-03-06T22:12:31.822Z,5.20
2018-03-06T22:15:00.795Z,5.20
2018-03-06T22:17:30.285Z,5.10
2018-03-06T22:19:58.254Z,5.10
2018-03-06T22:22:26.140Z,5.10
2018-03-06T22:24:54.915Z,5.20
2018-03-06T22:27:22.962Z,5.20
2018-03-06T22:29:50.701Z,5.10
2018-03-06T22:32:18.793Z,5.10
2018-03-06T22:34:46.658Z,5.10
2018-03-06T22:37:16.263Z,5.20
2018-03-06T22:39:44.163Z,5.10
2018-03-06T22:42:11.983Z,5.00
2018-03-06T22:44:39.868Z,5.00
2018-03-06T22:47:08.675Z,5.00
2018-03-06T22:49:36.450Z,5.00
2018-03-06T22:52:07.467Z,5.00
2018-03-06T22:57:16.344Z,5.00
2018-03-06T22:59:44.733Z,5.00
2018-03-06T23:02:12.694Z,4.90
2018-03-06T23:04:40.662Z,4.90
2018-03-06T23:07:09.133Z,4.80
2018-03-06T23:09:37.082Z,4.80
2018-03-06T23:12:05.244Z,4.80
2018-03-06T23:14:33.126Z,4.80
2018-03-06T23:17:02.523Z,4.80
2018-03-06T23:19:30.426Z,4.80
2018-03-06T23:21:58.562Z,4.70
2018-03-06T23:24:26.741Z,4.80
2018-03-06T23:26:54.724Z,4.70
2018-03-06T23:29:22.809Z,4.80
2018-03-06T23:31:50.750Z,4.70
2018-03-06T23:34:19.301Z,4.70
2018-03-06T23:36:47.608Z,4.70
